Time;durP1;ratioP1;P1;durP2;ratioP2;P2;SDS_P1;SDS_P2;PMS_P1;PMS_P2;Temp;Humidity;BMP_temperature;BMP_pressure;BME280_temperature;BME280_humidity;BME280_pressure;Samples;Min_cycle;Max_cycle;Signal;HPM_P1;HPM_P2
2022/11/19 00:00:44;;;;;;;12.13;7.05;;;4.00;99.90;;;;;;4869373;29;20067;-89
2022/11/19 00:03:11;;;;;;;13.98;8.02;;;4.00;99.90;;;;;;4868557;29;20033;-86
2022/11/19 00:05:42;;;;;;;12.98;7.88;;;3.90;99.90;;;;;;4856981;29;20087;-82
2022/11/19 00:08:08;;;;;;;14.93;8.75;;;4.00;99.90;;;;;;4865305;29;20100;-80
2022/11/19 00:10:35;;;;;;;13.95;9.25;;;3.90;99.90;;;;;;4856681;29;20119;-89
2022/11/19 00:13:01;;;;;;;16.52;9.90;;;3.80;99.90;;;;;;4858887;29;20029;-88
2022/11/19 00:15:27;;;;;;;12.90;9.05;;;3.80;99.90;;;;;;4874493;29;20045;-80
2022/11/19 00:17:53;;;;;;;14.20;8.52;;;3.70;99.90;;;;;;4872252;29;20112;-90
2022/11/19 00:20:19;;;;;;;13.85;9.60;;;3.80;99.90;;;;;;4869740;29;20048;-79
2022/11/19 00:22:49;;;;;;;13.80;8.13;;;3.80;99.90;;;;;;4872667;29;20080;-83
2022/11/19 00:25:14;;;;;;;11.88;8.25;;;3.80;99.90;;;;;;4856684;29;20034;-91
2022/11/19 00:27:40;;;;;;;18.08;10.60;;;3.90;99.90;;;;;;4850343;29;20052;-79
2022/11/19 00:30:06;;;;;;;15.20;9.30;;;3.70;99.90;;;;;;4854440;29;20021;-77
2022/11/19 00:32:32;;;;;;;15.25;9.50;;;3.70;99.90;;;;;;4851956;29;20038;-90
2022/11/19 00:34:58;;;;;;;13.13;9.40;;;3.70;99.90;;;;;;4857131;29;20038;-87
2022/11/19 00:37:23;;;;;;;13.15;8.32;;;3.70;99.90;;;;;;4855526;29;20179;-94
2022/11/19 00:39:49;;;;;;;13.73;8.15;;;3.70;99.90;;;;;;4858000;29;20049;-82
2022/11/19 00:42:15;;;;;;;10.55;6.85;;;3.70;99.90;;;;;;4855196;29;20022;-90
2022/11/19 00:44:40;;;;;;;13.23;7.97;;;3.60;99.90;;;;;;4853248;29;20036;-79
2022/11/19 00:47:06;;;;;;;12.98;7.88;;;3.70;99.90;;;;;;4868683;29;20045;-87
2022/11/19 00:49:31;;;;;;;11.05;6.90;;;3.70;99.90;;;;;;4855624;29;20026;-87
2022/11/19 00:51:57;;;;;;;12.23;6.45;;;3.70;99.90;;;;;;4857666;29;20061;-87
2022/11/19 00:54:23;;;;;;;11.90;7.72;;;3.70;99.90;;;;;;4855229;29;20124;-86
2022/11/19 00:56:48;;;;;;;10.77;7.15;;;3.60;99.90;;;;;;4852524;29;20033;-81
2022/11/19 00:59:14;;;;;;;10.18;6.93;;;3.70;99.90;;;;;;4853490;29;20041;-88
2022/11/19 01:01:40;;;;;;;10.57;5.80;;;3.70;99.90;;;;;;4856963;29;20037;-80
2022/11/19 01:04:05;;;;;;;10.38;6.65;;;3.80;99.90;;;;;;4855106;29;20113;-80
2022/11/19 01:06:31;;;;;;;11.77;6.75;;;3.70;99.90;;;;;;4842104;29;20399;-90
2022/11/19 01:08:57;;;;;;;12.02;7.97;;;3.60;99.90;;;;;;4857421;29;20046;-90
2022/11/19 01:11:29;;;;;;;12.13;7.88;;;3.60;99.90;;;;;;4852199;29;20128;-91
2022/11/19 01:13:56;;;;;;;14.15;9.23;;;3.60;99.90;;;;;;4864381;29;20417;-83
2022/11/19 01:16:27;;;;;;;13.65;8.70;;;3.60;99.90;;;;;;4867616;29;20049;-90
2022/11/19 01:18:53;;;;;;;12.38;8.85;;;3.60;99.90;;;;;;4856347;29;20113;-89
2022/11/19 01:21:22;;;;;;;11.18;7.97;;;3.60;99.90;;;;;;4854975;29;20029;-89
2022/11/19 01:23:48;;;;;;;12.32;8.13;;;3.60;99.90;;;;;;4853679;29;20502;-89
2022/11/19 01:26:14;;;;;;;11.80;7.50;;;3.60;99.90;;;;;;4854623;29;20037;-92
2022/11/19 01:28:41;;;;;;;14.32;9.35;;;3.60;99.90;;;;;;4853065;29;20097;-87
2022/11/19 01:31:09;;;;;;;17.67;10.98;;;3.60;99.90;;;;;;4856880;29;20040;-87
2022/11/19 01:33:35;;;;;;;18.15;10.15;;;3.50;99.90;;;;;;4853351;29;20061;-89
2022/11/19 01:36:06;;;;;;;16.73;11.50;;;3.50;99.90;;;;;;4869088;29;20093;-81
2022/11/19 01:38:33;;;;;;;14.48;9.63;;;3.40;99.90;;;;;;4870715;29;20041;-91
2022/11/19 01:40:59;;;;;;;16.10;11.25;;;3.50;99.90;;;;;;4838486;29;20033;-81
2022/11/19 01:43:40;;;;;;;20.98;14.15;;;3.40;99.90;;;;;;4853828;29;20038;-86
2022/11/19 01:46:06;;;;;;;20.10;14.02;;;3.30;99.90;;;;;;4855519;29;20032;-88
2022/11/19 01:48:36;;;;;;;17.90;12.25;;;3.40;99.90;;;;;;4851834;29;20415;-91
2022/11/19 01:51:08;;;;;;;19.38;12.60;;;3.30;99.90;;;;;;4851393;29;20141;-88
2022/11/19 01:53:35;;;;;;;16.45;10.48;;;3.20;99.90;;;;;;4850839;29;20038;-88
2022/11/19 01:56:04;;;;;;;19.13;12.20;;;3.30;99.90;;;;;;4851547;29;20109;-81
2022/11/19 01:58:35;;;;;;;17.23;11.70;;;3.30;99.90;;;;;;4852159;29;20042;-83
2022/11/19 02:01:01;;;;;;;18.67;12.20;;;3.30;99.90;;;;;;4852728;29;20029;-92
2022/11/19 02:03:29;;;;;;;20.92;14.23;;;3.30;99.90;;;;;;4855597;29;20040;-87
2022/11/19 02:05:55;;;;;;;21.60;14.48;;;3.10;99.90;;;;;;4848111;29;20045;-87
2022/11/19 02:08:44;;;;;;;23.13;14.45;;;3.10;99.90;;;;;;4852527;29;20255;-79
2022/11/19 02:11:15;;;;;;;17.88;12.05;;;3.20;99.90;;;;;;4854160;29;20037;-82
2022/11/19 02:13:50;;;;;;;20.92;14.48;;;3.20;99.90;;;;;;4863913;29;20033;-79
2022/11/19 02:16:30;;;;;;;20.85;15.10;;;3.10;99.90;;;;;;4841871;29;20030;-84
2022/11/19 02:19:31;;;;;;;22.67;15.43;;;3.00;99.90;;;;;;4862553;29;20037;-87
2022/11/19 02:22:30;;;;;;;21.85;13.77;;;3.00;99.90;;;;;;4853754;29;20137;-89
2022/11/19 02:25:16;;;;;;;21.52;14.15;;;3.00;99.90;;;;;;4854370;29;20034;-95
2022/11/19 02:28:01;;;;;;;22.08;14.65;;;3.00;99.90;;;;;;4867786;29;20418;-87
2022/11/19 02:30:45;;;;;;;23.48;15.07;;;3.00;99.90;;;;;;4851483;29;20411;-92
2022/11/19 02:33:21;;;;;;;23.30;15.82;;;2.90;99.90;;;;;;4863924;29;20125;-93
2022/11/19 02:36:16;;;;;;;25.70;16.33;;;2.90;99.90;;;;;;4853121;29;20132;-88
2022/11/19 02:38:55;;;;;;;24.55;17.20;;;2.90;99.90;;;;;;4852652;29;20427;-85
2022/11/19 02:41:34;;;;;;;26.23;16.30;;;2.80;99.90;;;;;;4856127;29;20167;-90
2022/11/19 02:47:24;;;;;;;25.30;17.45;;;2.90;99.90;;;;;;4850792;29;20089;-93
2022/11/19 02:49:53;;;;;;;25.33;16.48;;;2.80;99.90;;;;;;4870144;29;20486;-84
2022/11/19 02:52:19;;;;;;;22.45;15.18;;;2.90;99.90;;;;;;4850707;29;20078;-87
2022/11/19 02:54:45;;;;;;;21.10;14.43;;;2.90;99.90;;;;;;4862843;29;20089;-91
2022/11/19 02:57:12;;;;;;;20.83;14.23;;;2.90;99.90;;;;;;4858836;29;20030;-85
2022/11/19 03:05:39;;;;;;;20.48;13.30;;;2.90;99.90;;;;;;4853379;29;20030;-88
2022/11/19 03:08:05;;;;;;;20.55;13.43;;;2.90;99.90;;;;;;4852954;29;20443;-89
2022/11/19 03:10:42;;;;;;;21.30;14.27;;;2.90;99.90;;;;;;4867815;29;20082;-85
2022/11/19 03:19:16;;;;;;;25.08;16.38;;;2.70;99.90;;;;;;4851602;29;20120;-83
2022/11/19 03:21:53;;;;;;;22.13;14.98;;;2.70;99.90;;;;;;4840074;29;20121;-90
2022/11/19 03:24:29;;;;;;;24.52;15.15;;;2.80;99.90;;;;;;4854765;29;20029;-90
2022/11/19 03:27:01;;;;;;;21.08;13.70;;;2.70;99.90;;;;;;4852295;29;20129;-90
2022/11/19 03:29:31;;;;;;;26.55;17.63;;;2.80;99.90;;;;;;4847060;29;20387;-88
2022/11/19 03:32:06;;;;;;;28.17;17.37;;;2.70;99.90;;;;;;4844710;29;20025;-86
2022/11/19 03:34:33;;;;;;;25.95;16.65;;;2.70;99.90;;;;;;4865391;29;20038;-90
2022/11/19 03:37:01;;;;;;;24.77;16.70;;;2.60;99.90;;;;;;4865191;29;20470;-85
2022/11/19 03:39:27;;;;;;;26.77;17.23;;;2.70;99.90;;;;;;4867488;29;20068;-84
2022/11/19 03:41:55;;;;;;;27.67;17.25;;;2.60;99.90;;;;;;4852303;29;20041;-90
2022/11/19 03:44:25;;;;;;;23.58;15.10;;;2.70;99.90;;;;;;4835176;29;20033;-89
2022/11/19 03:46:58;;;;;;;23.40;16.02;;;2.60;99.90;;;;;;4836460;29;20038;-88
2022/11/19 03:49:30;;;;;;;23.92;15.98;;;2.70;99.90;;;;;;4852362;29;20037;-89
2022/11/19 03:52:04;;;;;;;26.58;17.25;;;2.60;99.90;;;;;;4849701;29;20371;-84
2022/11/19 03:54:30;;;;;;;31.38;19.48;;;2.60;99.90;;;;;;4865618;29;20074;-80
2022/11/19 03:56:58;;;;;;;27.10;17.88;;;2.60;99.90;;;;;;4851063;29;20118;-81
2022/11/19 03:59:24;;;;;;;24.02;16.15;;;2.50;99.90;;;;;;4866268;29;20041;-87
2022/11/19 04:01:51;;;;;;;27.05;16.90;;;2.60;99.90;;;;;;4855174;29;20089;-80
2022/11/19 04:07:22;;;;;;;23.73;15.35;;;2.50;99.90;;;;;;4855289;29;20204;-87
2022/11/19 04:09:48;;;;;;;26.38;17.17;;;2.50;99.90;;;;;;4838108;29;20674;-89
2022/11/19 04:12:17;;;;;;;26.08;16.50;;;2.50;99.90;;;;;;4851064;29;20138;-80
2022/11/19 04:14:43;;;;;;;22.58;14.57;;;2.40;99.90;;;;;;4843879;29;20030;-80
2022/11/19 04:17:09;;;;;;;29.02;18.88;;;2.50;99.90;;;;;;4863633;29;20046;-85
2022/11/19 04:19:35;;;;;;;32.78;20.02;;;2.40;99.90;;;;;;4852457;29;20025;-81
2022/11/19 04:22:00;;;;;;;26.98;16.83;;;2.40;99.90;;;;;;4852021;29;20504;-79
2022/11/19 04:24:26;;;;;;;27.45;18.55;;;2.40;99.90;;;;;;4845480;29;20121;-88
2022/11/19 04:26:52;;;;;;;29.23;17.65;;;2.50;99.90;;;;;;4851607;29;20418;-80
2022/11/19 04:29:17;;;;;;;25.38;16.73;;;2.40;99.90;;;;;;4851266;29;20814;-82
2022/11/19 04:31:43;;;;;;;23.13;15.02;;;2.40;99.90;;;;;;4848350;29;20471;-83
2022/11/19 04:34:09;;;;;;;25.95;16.83;;;2.40;99.90;;;;;;4855147;29;20034;-87
2022/11/19 04:36:35;;;;;;;25.98;17.27;;;2.40;99.90;;;;;;4867292;29;20053;-88
2022/11/19 04:39:00;;;;;;;31.63;19.48;;;2.40;99.90;;;;;;4866042;29;20087;-88
2022/11/19 04:41:26;;;;;;;28.85;18.10;;;2.40;99.90;;;;;;4861433;29;20037;-79
2022/11/19 04:43:52;;;;;;;28.38;17.95;;;2.30;99.90;;;;;;4843832;29;20046;-79
2022/11/19 04:46:17;;;;;;;31.58;20.42;;;2.30;99.90;;;;;;4866234;29;20059;-92
2022/11/19 04:48:43;;;;;;;27.75;17.42;;;2.30;99.90;;;;;;4855699;29;20410;-80
2022/11/19 04:51:09;;;;;;;24.67;16.33;;;2.30;99.90;;;;;;4857342;29;20114;-89
2022/11/19 04:53:34;;;;;;;27.83;16.00;;;2.40;99.90;;;;;;4857787;29;20112;-89
2022/11/19 04:56:00;;;;;;;29.38;18.40;;;2.40;99.90;;;;;;4853424;29;20025;-88
2022/11/19 04:58:26;;;;;;;27.80;17.73;;;2.30;99.90;;;;;;4860266;29;20069;-92
2022/11/19 05:00:51;;;;;;;29.83;17.98;;;2.30;99.90;;;;;;4854740;29;20052;-85
2022/11/19 05:03:17;;;;;;;30.17;19.58;;;2.30;99.90;;;;;;4867384;29;20615;-88
2022/11/19 05:05:43;;;;;;;28.02;18.45;;;2.20;99.90;;;;;;4856665;29;20106;-81
2022/11/19 05:08:08;;;;;;;27.48;16.40;;;2.30;99.90;;;;;;4869424;29;20041;-79
2022/11/19 05:10:34;;;;;;;26.25;16.85;;;2.20;99.90;;;;;;4853690;29;20032;-88
2022/11/19 05:13:00;;;;;;;26.17;16.08;;;2.30;99.90;;;;;;4871396;29;20109;-84
2022/11/19 05:15:25;;;;;;;25.70;15.95;;;2.20;99.90;;;;;;4868295;29;20058;-82
2022/11/19 05:17:51;;;;;;;25.17;15.88;;;2.20;99.90;;;;;;4837429;29;20060;-78
2022/11/19 05:20:17;;;;;;;27.45;16.80;;;2.30;99.90;;;;;;4857672;29;20029;-84
2022/11/19 05:22:42;;;;;;;29.00;18.42;;;2.20;99.90;;;;;;4862398;29;20129;-80
2022/11/19 05:25:08;;;;;;;27.77;17.35;;;2.10;99.90;;;;;;4865753;29;20056;-82
2022/11/19 05:27:34;;;;;;;27.85;16.17;;;2.20;99.90;;;;;;4856588;29;20045;-83
2022/11/19 05:29:59;;;;;;;25.35;15.80;;;2.20;99.90;;;;;;4864696;29;20113;-84
2022/11/19 05:32:25;;;;;;;28.58;18.08;;;2.20;99.90;;;;;;4857095;29;20025;-84
2022/11/19 05:34:51;;;;;;;24.85;15.35;;;2.10;99.90;;;;;;4848210;29;20098;-87
2022/11/19 05:37:16;;;;;;;28.30;17.50;;;2.10;99.90;;;;;;4865655;29;20077;-87
2022/11/19 05:39:42;;;;;;;27.10;16.50;;;2.10;99.90;;;;;;4846541;29;20379;-82
2022/11/19 05:42:08;;;;;;;32.25;19.38;;;2.10;99.90;;;;;;4854341;29;20470;-85
2022/11/19 05:44:33;;;;;;;32.08;19.10;;;2.00;99.90;;;;;;4853970;29;20030;-89
2022/11/19 05:46:59;;;;;;;27.65;17.52;;;2.00;99.90;;;;;;4870578;29;20033;-87
2022/11/19 05:49:24;;;;;;;30.35;18.83;;;2.10;99.90;;;;;;4845305;29;20067;-88
2022/11/19 05:51:50;;;;;;;30.38;17.65;;;2.00;99.90;;;;;;4854864;29;20478;-82
2022/11/19 05:54:16;;;;;;;26.63;17.10;;;2.00;99.90;;;;;;4856868;29;20033;-89
2022/11/19 05:56:42;;;;;;;26.88;17.60;;;2.00;99.90;;;;;;4845363;29;20390;-88
2022/11/19 05:59:07;;;;;;;28.17;17.95;;;2.00;99.90;;;;;;4854037;29;20026;-83
2022/11/19 06:01:33;;;;;;;30.40;19.13;;;2.00;99.90;;;;;;4839213;29;20550;-91
2022/11/19 06:03:59;;;;;;;30.10;18.38;;;1.90;99.90;;;;;;4868609;29;20033;-88
2022/11/19 06:06:26;;;;;;;26.67;17.08;;;1.90;99.90;;;;;;4852234;29;20025;-88
2022/11/19 06:08:51;;;;;;;22.63;14.77;;;1.90;99.90;;;;;;4853785;29;20073;-86
2022/11/19 06:14:02;;;;;;;29.00;18.98;;;1.90;99.90;;;;;;4854110;29;20116;-87
2022/11/19 06:16:27;;;;;;;30.40;18.15;;;1.80;99.90;;;;;;4854333;29;20443;-82
2022/11/19 06:18:54;;;;;;;27.30;17.77;;;1.80;99.90;;;;;;4837262;29;20037;-80
2022/11/19 06:21:19;;;;;;;28.45;17.17;;;1.80;99.90;;;;;;4852757;29;20034;-90
2022/11/19 06:23:45;;;;;;;26.85;16.75;;;1.80;99.90;;;;;;4864666;29;20049;-83
2022/11/19 06:26:20;;;;;;;26.45;16.42;;;1.80;99.90;;;;;;4866000;29;20033;-88
2022/11/19 06:28:46;;;;;;;29.00;17.27;;;1.80;99.90;;;;;;4866023;29;20052;-81
2022/11/19 06:31:11;;;;;;;24.35;14.95;;;1.80;99.90;;;;;;4846499;29;20030;-93
2022/11/19 06:33:37;;;;;;;27.50;16.42;;;1.80;99.90;;;;;;4846632;29;20485;-84
2022/11/19 06:36:02;;;;;;;25.77;16.23;;;1.70;99.90;;;;;;4855150;29;20077;-91
2022/11/19 06:38:28;;;;;;;30.20;17.42;;;1.70;99.90;;;;;;4852851;29;20111;-87
2022/11/19 06:40:54;;;;;;;26.23;16.42;;;1.60;99.90;;;;;;4861403;29;20048;-87
2022/11/19 06:43:19;;;;;;;27.98;17.38;;;1.60;99.90;;;;;;4867417;29;20034;-87
2022/11/19 06:45:45;;;;;;;29.63;17.73;;;1.60;99.90;;;;;;4851494;29;20048;-93
2022/11/19 06:48:10;;;;;;;28.25;17.45;;;1.60;99.90;;;;;;4852349;29;20049;-82
2022/11/19 06:50:36;;;;;;;27.48;16.92;;;1.60;99.90;;;;;;4838419;29;20046;-89
2022/11/19 06:53:02;;;;;;;29.65;17.60;;;1.60;99.90;;;;;;4852660;29;20033;-90
2022/11/19 06:55:27;;;;;;;28.95;16.33;;;1.50;99.90;;;;;;4852621;29;20490;-83
2022/11/19 06:57:53;;;;;;;26.65;16.23;;;1.50;99.90;;;;;;4834203;29;20037;-84
2022/11/19 07:00:19;;;;;;;23.88;13.38;;;1.50;99.90;;;;;;4853008;29;20036;-86
2022/11/19 07:02:46;;;;;;;23.42;14.55;;;1.50;99.90;;;;;;4856285;29;20414;-91
2022/11/19 07:05:12;;;;;;;24.13;14.40;;;1.50;99.90;;;;;;4846568;29;20112;-84
2022/11/19 07:07:38;;;;;;;24.38;13.48;;;1.50;99.90;;;;;;4855529;29;20582;-82
2022/11/19 07:10:06;;;;;;;27.45;14.73;;;1.50;99.90;;;;;;4852327;29;20121;-89
2022/11/19 07:12:31;;;;;;;28.25;15.85;;;1.50;99.90;;;;;;4866982;29;20056;-89
2022/11/19 07:14:57;;;;;;;26.70;14.82;;;1.40;99.90;;;;;;4851887;29;20554;-85
2022/11/19 07:17:22;;;;;;;24.55;14.38;;;1.40;99.90;;;;;;4854088;29;20025;-88
2022/11/19 07:19:48;;;;;;;23.52;13.93;;;1.40;99.90;;;;;;4853582;29;20046;-85
2022/11/19 07:22:14;;;;;;;25.77;15.85;;;1.40;99.90;;;;;;4854994;29;20025;-85
2022/11/19 07:24:39;;;;;;;26.88;16.17;;;1.40;99.90;;;;;;4848496;29;20037;-87
2022/11/19 07:27:05;;;;;;;27.98;16.83;;;1.40;99.90;;;;;;4859893;29;20033;-91
2022/11/19 07:29:31;;;;;;;26.77;16.52;;;1.30;99.90;;;;;;4865093;29;20033;-84
2022/11/19 07:31:56;;;;;;;27.02;15.32;;;1.30;99.90;;;;;;4852930;29;20040;-91
2022/11/19 07:34:22;;;;;;;28.13;16.02;;;1.30;99.90;;;;;;4866343;29;20037;-81
2022/11/19 07:36:48;;;;;;;28.95;16.73;;;1.30;99.90;;;;;;4852292;29;20482;-91
2022/11/19 07:39:15;;;;;;;25.67;15.15;;;1.30;99.90;;;;;;4851905;29;20041;-89
2022/11/19 07:44:25;;;;;;;20.25;11.50;;;1.40;99.90;;;;;;4854386;29;20072;-82
2022/11/19 07:46:50;;;;;;;21.02;13.68;;;1.30;99.90;;;;;;4852974;29;20057;-82
2022/11/19 07:49:16;;;;;;;28.27;16.17;;;1.20;99.90;;;;;;4861887;29;20045;-93
2022/11/19 07:51:43;;;;;;;27.80;15.95;;;1.20;99.90;;;;;;4866151;29;20038;-82
2022/11/19 07:54:11;;;;;;;25.13;14.52;;;1.20;99.90;;;;;;4836710;29;20030;-86
2022/11/19 07:56:37;;;;;;;24.80;14.43;;;1.20;99.90;;;;;;4850013;29;20065;-89
2022/11/19 07:59:03;;;;;;;25.25;14.27;;;1.10;99.90;;;;;;4865120;29;20096;-80
2022/11/19 08:01:28;;;;;;;21.77;13.10;;;1.10;99.90;;;;;;4835452;29;20066;-80
2022/11/19 08:03:54;;;;;;;25.52;14.50;;;1.20;99.90;;;;;;4864689;29;20037;-84
2022/11/19 08:06:21;;;;;;;27.02;15.15;;;1.00;99.90;;;;;;4849906;29;20041;-90
2022/11/19 08:08:47;;;;;;;21.98;14.02;;;1.00;99.90;;;;;;4853766;29;20073;-88
2022/11/19 08:11:14;;;;;;;23.33;13.57;;;0.90;99.90;;;;;;4862840;29;20080;-80
2022/11/19 08:13:40;;;;;;;22.67;14.07;;;0.90;99.90;;;;;;4852356;29;20061;-85
2022/11/19 08:19:02;;;;;;;23.02;13.35;;;0.80;99.90;;;;;;4858054;29;20078;-82
2022/11/19 08:21:28;;;;;;;21.58;12.63;;;0.80;99.90;;;;;;4850172;29;20056;-92
2022/11/19 08:23:54;;;;;;;22.35;13.25;;;0.80;99.90;;;;;;4855352;29;20127;-84
2022/11/19 08:26:19;;;;;;;21.27;13.15;;;0.70;99.90;;;;;;4870439;29;20037;-83
2022/11/19 08:28:45;;;;;;;22.42;13.45;;;0.60;99.90;;;;;;4855488;29;20102;-81
2022/11/19 08:31:11;;;;;;;20.77;13.15;;;0.60;99.90;;;;;;4852599;29;20448;-86
2022/11/19 08:33:36;;;;;;;22.92;13.48;;;0.50;99.90;;;;;;4857763;29;20104;-90
2022/11/19 08:36:03;;;;;;;23.23;12.93;;;0.50;99.90;;;;;;4856716;29;20124;-84
2022/11/19 08:38:28;;;;;;;21.15;12.65;;;0.50;99.90;;;;;;4851539;29;20041;-85
2022/11/19 08:42:58;;;;;;;20.55;11.68;;;0.40;99.90;;;;;;4852398;29;20038;-88
2022/11/19 08:43:40;;;;;;;22.52;12.52;;;0.40;99.90;;;;;;4853414;29;20037;-80
2022/11/19 08:46:06;;;;;;;28.38;15.95;;;0.40;99.90;;;;;;4873451;29;20422;-90
2022/11/19 08:48:32;;;;;;;31.98;17.08;;;0.40;99.90;;;;;;4856296;29;20037;-91
2022/11/19 08:50:58;;;;;;;28.67;15.55;;;0.40;99.90;;;;;;4865041;29;20499;-89
2022/11/19 08:53:23;;;;;;;26.67;14.20;;;0.40;99.90;;;;;;4866330;29;20040;-85
2022/11/19 08:55:52;;;;;;;25.27;12.63;;;0.50;99.90;;;;;;4868024;29;20038;-91
2022/11/19 08:58:18;;;;;;;24.15;13.02;;;0.60;99.90;;;;;;4856613;29;20050;-89
2022/11/19 09:00:43;;;;;;;20.63;12.23;;;0.80;99.90;;;;;;4856169;29;20032;-87
2022/11/19 09:03:09;;;;;;;20.38;11.77;;;0.80;99.90;;;;;;4854419;29;20344;-80
2022/11/19 09:05:34;;;;;;;19.70;11.85;;;0.80;99.90;;;;;;4856590;29;20124;-88
2022/11/19 09:08:00;;;;;;;17.67;11.27;;;0.90;99.90;;;;;;4853726;29;20116;-84
2022/11/19 09:10:27;;;;;;;20.13;11.38;;;1.00;99.90;;;;;;4851395;29;20037;-82
2022/11/19 09:12:53;;;;;;;20.58;12.35;;;1.00;99.90;;;;;;4853756;29;20124;-82
2022/11/19 09:15:19;;;;;;;17.40;10.40;;;0.90;99.90;;;;;;4852659;29;20068;-80
2022/11/19 09:17:45;;;;;;;19.08;11.27;;;1.10;99.90;;;;;;4838314;29;20098;-85
2022/11/19 09:20:11;;;;;;;16.02;10.15;;;1.20;99.90;;;;;;4863781;29;20037;-79
2022/11/19 09:22:37;;;;;;;17.17;9.98;;;1.30;99.90;;;;;;4854999;29;20037;-87
2022/11/19 09:25:03;;;;;;;17.13;10.30;;;1.30;99.90;;;;;;4853330;29;20033;-85
2022/11/19 09:27:29;;;;;;;18.08;10.48;;;1.30;99.90;;;;;;4855506;29;20064;-85
2022/11/19 09:29:55;;;;;;;18.45;11.05;;;1.40;99.90;;;;;;4870420;29;20042;-84
2022/11/19 09:32:21;;;;;;;19.65;11.85;;;1.40;99.90;;;;;;4837133;29;20029;-82
2022/11/19 09:34:46;;;;;;;17.48;10.18;;;1.30;99.90;;;;;;4854850;29;20038;-88
2022/11/19 09:37:12;;;;;;;17.02;10.23;;;1.40;99.90;;;;;;4851688;29;20036;-84
2022/11/19 09:39:38;;;;;;;17.58;10.52;;;1.50;99.90;;;;;;4851955;29;20045;-91
2022/11/19 09:42:22;;;;;;;18.42;11.63;;;1.60;99.90;;;;;;4852640;29;20029;-87
2022/11/19 09:44:55;;;;;;;14.38;8.50;;;1.60;99.90;;;;;;4851593;29;20046;-85
2022/11/19 09:47:50;;;;;;;13.68;7.82;;;1.80;99.90;;;;;;4851506;29;20457;-83
2022/11/19 09:50:21;;;;;;;17.50;10.23;;;1.90;99.90;;;;;;4853143;29;20058;-81
2022/11/19 09:52:55;;;;;;;14.75;9.50;;;1.80;99.90;;;;;;4855062;29;20034;-80
2022/11/19 09:55:42;;;;;;;15.85;8.70;;;1.90;99.90;;;;;;4855240;29;20081;-87
2022/11/19 09:58:21;;;;;;;14.23;9.10;;;1.90;99.90;;;;;;4852593;29;20042;-91
2022/11/19 10:00:47;;;;;;;14.40;8.65;;;1.90;99.90;;;;;;4850354;29;20077;-93
2022/11/19 10:03:24;;;;;;;13.80;8.90;;;1.80;99.90;;;;;;4852559;29;20080;-80
2022/11/19 10:06:15;;;;;;;15.32;9.68;;;1.90;99.90;;;;;;4854040;29;20120;-85
2022/11/19 10:09:05;;;;;;;14.90;9.35;;;1.90;99.90;;;;;;4841121;29;20030;-80
2022/11/19 10:11:49;;;;;;;15.82;9.02;;;1.90;99.90;;;;;;4852521;29;20282;-82
2022/11/19 10:14:26;;;;;;;13.15;7.57;;;2.00;99.90;;;;;;4853869;29;20466;-84
2022/11/19 10:17:03;;;;;;;13.55;8.23;;;2.20;99.90;;;;;;4849900;29;20145;-85
2022/11/19 10:19:45;;;;;;;16.48;9.75;;;2.10;99.90;;;;;;4856223;29;20701;-81
2022/11/19 10:22:42;;;;;;;14.40;9.52;;;2.00;99.90;;;;;;4842879;29;20033;-86
2022/11/19 10:25:15;;;;;;;14.80;8.45;;;2.20;99.90;;;;;;4841026;29;20041;-90
2022/11/19 10:27:53;;;;;;;13.18;8.80;;;2.20;99.90;;;;;;4837351;29;20046;-80
2022/11/19 10:30:23;;;;;;;12.55;8.35;;;2.20;99.90;;;;;;4833818;29;20144;-80
2022/11/19 10:33:02;;;;;;;13.77;8.23;;;2.20;99.90;;;;;;4855746;29;20041;-86
2022/11/19 10:35:38;;;;;;;12.65;7.93;;;2.40;99.90;;;;;;4840880;29;20033;-81
2022/11/19 10:38:20;;;;;;;12.70;8.45;;;2.40;99.90;;;;;;4852357;29;20145;-80
2022/11/19 10:40:53;;;;;;;11.63;7.05;;;2.40;99.90;;;;;;4851729;29;20049;-83
2022/11/19 10:43:45;;;;;;;11.63;7.53;;;2.60;99.90;;;;;;4832882;29;20041;-77
2022/11/19 10:46:13;;;;;;;11.13;6.45;;;2.70;99.90;;;;;;4847882;29;20205;-80
2022/11/19 10:48:43;;;;;;;10.20;7.30;;;2.80;99.90;;;;;;4854411;29;20057;-82
2022/11/19 10:51:19;;;;;;;11.63;7.65;;;2.70;99.90;;;;;;4838096;29;20072;-81
2022/11/19 10:53:45;;;;;;;13.52;7.97;;;2.70;99.90;;;;;;4843390;29;20930;-84
2022/11/19 10:56:16;;;;;;;12.30;7.20;;;2.50;99.90;;;;;;4844972;29;20034;-79
2022/11/19 10:58:59;;;;;;;10.63;7.00;;;2.60;99.90;;;;;;4853221;29;20489;-84
2022/11/19 11:01:30;;;;;;;9.30;6.03;;;2.90;99.90;;;;;;4853344;29;20129;-82
2022/11/19 11:04:19;;;;;;;9.52;6.28;;;2.80;99.90;;;;;;4853683;29;20056;-83
2022/11/19 11:06:56;;;;;;;9.17;5.87;;;3.00;99.90;;;;;;4852531;29;20082;-79
2022/11/19 11:09:32;;;;;;;9.95;6.10;;;2.90;99.90;;;;;;4844176;29;20049;-89
2022/11/19 11:15:14;;;;;;;10.82;7.00;;;3.00;99.90;;;;;;4839706;29;20743;-85
2022/11/19 11:17:43;;;;;;;13.60;8.45;;;2.90;99.90;;;;;;4838905;29;20389;-82
2022/11/19 11:20:15;;;;;;;11.13;6.75;;;2.90;99.90;;;;;;4841361;29;20049;-85
2022/11/19 11:22:42;;;;;;;11.82;7.38;;;3.10;99.90;;;;;;4851499;29;20475;-79
2022/11/19 11:25:23;;;;;;;8.48;5.95;;;3.20;99.90;;;;;;4841516;29;20042;-86
2022/11/19 11:28:16;;;;;;;11.23;7.63;;;3.20;99.90;;;;;;4837655;29;20467;-89
2022/11/19 11:31:00;;;;;;;10.68;7.75;;;3.10;99.90;;;;;;4837042;29;20044;-82
2022/11/19 11:33:31;;;;;;;10.70;6.07;;;3.20;99.90;;;;;;4823020;29;20475;-88
2022/11/19 11:36:11;;;;;;;10.75;6.88;;;3.20;99.90;;;;;;4859725;24;20060;-88
2022/11/19 11:38:45;;;;;;;12.05;7.25;;;2.90;99.90;;;;;;4862416;29;20040;-86
2022/11/19 11:41:18;;;;;;;10.10;7.07;;;2.90;99.90;;;;;;4862194;29;20033;-79
2022/11/19 11:44:01;;;;;;;11.35;7.38;;;3.00;99.90;;;;;;4868095;29;20522;-80
2022/11/19 11:46:49;;;;;;;11.60;7.43;;;2.90;99.90;;;;;;4863285;29;20097;-81
2022/11/19 11:49:36;;;;;;;10.48;7.63;;;3.00;99.90;;;;;;4865882;29;20132;-87
2022/11/19 11:52:08;;;;;;;10.00;7.13;;;2.90;99.90;;;;;;4865753;29;20040;-82
2022/11/19 11:54:35;;;;;;;10.02;6.55;;;2.90;99.90;;;;;;4863591;29;20037;-79
2022/11/19 11:57:16;;;;;;;9.23;5.75;;;3.00;99.90;;;;;;4877245;29;20104;-80
2022/11/19 11:59:41;;;;;;;11.10;7.28;;;3.20;99.90;;;;;;4870628;29;20132;-87
2022/11/19 12:02:17;;;;;;;9.30;6.15;;;3.10;99.90;;;;;;4865416;29;20084;-79
2022/11/19 12:04:43;;;;;;;9.65;6.55;;;3.20;99.90;;;;;;4867305;29;20482;-81
2022/11/19 12:07:23;;;;;;;7.63;5.72;;;3.00;99.90;;;;;;4874853;29;20072;-86
2022/11/19 12:09:52;;;;;;;;;;;3.10;99.90;;;;;;4859258;29;20450;-90
2022/11/19 12:12:47;;;;;;;9.50;5.55;;;3.30;99.90;;;;;;4859720;29;19970;-79
2022/11/19 12:15:25;;;;;;;7.55;5.13;;;3.50;99.90;;;;;;4858919;29;20040;-77
2022/11/19 12:17:57;;;;;;;9.15;5.80;;;3.40;99.90;;;;;;4874922;29;20487;-80
2022/11/19 12:20:58;;;;;;;11.20;6.25;;;3.30;99.90;;;;;;4860740;29;20033;-79
2022/11/19 12:23:57;;;;;;;7.78;5.43;;;3.40;99.90;;;;;;4873717;29;20044;-84
2022/11/19 12:26:59;;;;;;;8.50;5.80;;;3.50;99.90;;;;;;4875411;29;20443;-78
2022/11/19 12:29:40;;;;;;;8.50;5.18;;;3.40;99.90;;;;;;4874998;29;20148;-81
2022/11/19 12:32:31;;;;;;;7.65;5.30;;;3.30;99.90;;;;;;4874121;29;20482;-79
2022/11/19 12:35:09;;;;;;;9.75;6.65;;;3.20;99.90;;;;;;4885136;29;20060;-87
2022/11/19 12:38:04;;;;;;;9.07;5.88;;;3.30;99.90;;;;;;4873693;29;20037;-77
2022/11/19 12:40:48;;;;;;;9.43;4.82;;;3.30;99.90;;;;;;4883441;29;20060;-78
2022/11/19 12:43:41;;;;;;;6.93;4.47;;;3.30;99.90;;;;;;4870154;29;20543;-84
2022/11/19 12:46:31;;;;;;;8.05;5.18;;;3.40;99.90;;;;;;4884540;29;20177;-81
2022/11/19 12:49:22;;;;;;;8.10;4.55;;;3.40;99.90;;;;;;4883349;29;20041;-83
2022/11/19 12:52:23;;;;;;;4.25;3.55;;;3.50;99.90;;;;;;4868136;29;20051;-79
2022/11/19 12:54:55;;;;;;;8.65;4.97;;;3.50;99.90;;;;;;4869305;29;20037;-87
2022/11/19 12:57:33;;;;;;;7.00;4.45;;;3.60;99.90;;;;;;4886275;29;20044;-89
2022/11/19 13:00:18;;;;;;;6.60;4.70;;;3.40;99.90;;;;;;4883857;29;20034;-83
2022/11/19 13:03:01;;;;;;;7.57;4.32;;;3.60;99.90;;;;;;4883763;29;20093;-88
2022/11/19 13:05:27;;;;;;;6.43;4.30;;;3.50;99.90;;;;;;4869963;29;20029;-78
2022/11/19 13:08:34;;;;;;;5.13;3.50;;;3.60;99.90;;;;;;4879912;29;20045;-78
2022/11/19 13:11:22;;;;;;;6.07;3.45;;;3.40;99.90;;;;;;4871921;29;20037;-80
2022/11/19 13:14:00;;;;;;;5.78;3.70;;;3.40;99.90;;;;;;4870038;29;20405;-79
2022/11/19 13:16:29;;;;;;;6.10;3.97;;;3.50;99.90;;;;;;4871187;29;20486;-78
2022/11/19 13:19:11;;;;;;;5.88;3.78;;;3.40;99.90;;;;;;4887392;29;20081;-79
2022/11/19 13:21:58;;;;;;;4.57;3.10;;;3.60;99.90;;;;;;4872158;29;20037;-90
2022/11/19 13:24:41;;;;;;;5.07;3.35;;;3.60;99.90;;;;;;4888002;29;20342;-79
2022/11/19 13:27:14;;;;;;;4.60;3.00;;;3.60;99.90;;;;;;4874685;29;20032;-89
2022/11/19 13:29:52;;;;;;;6.07;4.18;;;3.50;99.90;;;;;;4887013;29;20048;-79
2022/11/19 13:32:37;;;;;;;5.20;3.10;;;3.40;99.90;;;;;;4865768;29;20059;-78